createdAt,value
2022-11-13T00:01:18.765Z,6.18
2022-11-13T00:03:45.979Z,6.13
2022-11-13T00:06:14.132Z,6.05
2022-11-13T00:08:41.704Z,6.00
2022-11-13T00:11:20.441Z,4.85
2022-11-13T00:13:48.582Z,5.68
2022-11-13T00:16:18.062Z,5.68
2022-11-13T00:18:45.409Z,4.70
2022-11-13T00:21:16.263Z,5.45
2022-11-13T00:23:43.354Z,5.18
2022-11-13T00:26:13.428Z,5.88
2022-11-13T00:28:40.725Z,4.88
2022-11-13T00:31:09.048Z,5.45
2022-11-13T00:34:05.172Z,5.78
2022-11-13T00:36:26.486Z,5.88
2022-11-13T00:38:54.420Z,6.28
2022-11-13T00:41:21.832Z,5.57
2022-11-13T00:43:48.599Z,5.45
2022-11-13T00:46:15.385Z,5.90
2022-11-13T00:48:42.164Z,4.95
2022-11-13T00:51:09.042Z,5.35
2022-11-13T00:53:35.845Z,5.57
2022-11-13T00:56:02.982Z,6.10
2022-11-13T00:58:30.179Z,6.57
2022-11-13T01:01:07.995Z,5.72
2022-11-13T01:03:35.012Z,5.47
2022-11-13T01:06:08.938Z,6.53
2022-11-13T01:08:35.683Z,6.13
2022-11-13T01:11:09.771Z,5.85
2022-11-13T01:13:36.580Z,5.43
2022-11-13T01:16:07.099Z,6.32
2022-11-13T01:18:34.148Z,5.65
2022-11-13T01:21:16.233Z,7.13
2022-11-13T01:23:43.136Z,6.05
2022-11-13T01:26:13.991Z,6.47
2022-11-13T01:28:42.152Z,6.75
2022-11-13T01:31:12.122Z,5.88
2022-11-13T01:33:39.378Z,6.65
2022-11-13T01:36:20.971Z,6.05
2022-11-13T01:38:48.404Z,5.90
2022-11-13T01:41:23.758Z,5.65
2022-11-13T01:43:52.119Z,6.13
2022-11-13T01:46:32.893Z,6.45
2022-11-13T01:49:08.549Z,6.00
2022-11-13T01:51:40.882Z,6.18
2022-11-13T01:54:13.131Z,6.05
2022-11-13T01:56:40.818Z,6.00
2022-11-13T01:59:15.563Z,7.00
2022-11-13T02:01:42.661Z,6.60
2022-11-13T02:04:09.907Z,6.25
2022-11-13T02:06:45.598Z,6.82
2022-11-13T02:09:13.935Z,5.72
2022-11-13T02:11:41.273Z,7.05
2022-11-13T02:14:09.834Z,6.95
2022-11-13T02:16:38.152Z,7.18
2022-11-13T02:19:10.761Z,5.97
2022-11-13T02:22:03.359Z,6.07
2022-11-13T02:24:36.814Z,6.93
2022-11-13T02:29:32.899Z,6.28
2022-11-13T02:31:59.722Z,6.60
2022-11-13T02:34:26.459Z,6.60
2022-11-13T02:36:53.274Z,5.43
2022-11-13T02:39:20.151Z,6.22
2022-11-13T02:41:46.932Z,5.97
2022-11-13T02:44:13.832Z,5.78
2022-11-13T02:46:40.825Z,5.90
2022-11-13T02:49:07.758Z,6.75
2022-11-13T02:51:34.667Z,6.57
2022-11-13T02:54:01.564Z,6.78
2022-11-13T02:56:28.396Z,5.88
2022-11-13T02:58:55.175Z,5.50
2022-11-13T03:01:22.200Z,6.75
2022-11-13T03:03:57.459Z,5.90
2022-11-13T03:06:25.267Z,6.95
2022-11-13T03:08:52.162Z,6.25
2022-11-13T03:11:18.980Z,5.90
2022-11-13T03:13:45.709Z,6.22
2022-11-13T03:16:17.230Z,6.45
2022-11-13T03:18:44.029Z,6.28
2022-11-13T03:21:14.294Z,6.93
2022-11-13T03:23:44.921Z,6.40
2022-11-13T03:26:13.838Z,6.35
2022-11-13T03:28:40.871Z,6.72
2022-11-13T03:31:07.690Z,6.70
2022-11-13T03:33:34.587Z,6.75
2022-11-13T03:36:01.376Z,5.72
2022-11-13T03:38:28.323Z,6.03
2022-11-13T03:40:55.467Z,5.55
2022-11-13T03:43:22.659Z,6.00
2022-11-13T03:45:49.595Z,5.70
2022-11-13T03:48:16.851Z,6.35
2022-11-13T03:50:45.944Z,6.25
2022-11-13T03:53:13.682Z,6.78
2022-11-13T03:55:40.869Z,5.70
2022-11-13T03:58:07.647Z,6.22
2022-11-13T04:00:34.970Z,5.63
2022-11-13T04:03:01.894Z,6.60
2022-11-13T04:05:28.754Z,5.50
2022-11-13T04:07:55.615Z,5.78
2022-11-13T04:10:22.908Z,5.72
2022-11-13T04:12:49.679Z,6.75
2022-11-13T04:15:17.000Z,6.07
2022-11-13T04:17:44.165Z,6.78
2022-11-13T04:20:11.726Z,6.00
2022-11-13T04:22:38.487Z,5.72
2022-11-13T04:25:06.415Z,5.72
2022-11-13T04:27:33.486Z,6.65
2022-11-13T04:30:00.238Z,5.95
2022-11-13T04:32:27.212Z,6.32
2022-11-13T04:34:54.009Z,5.80
2022-11-13T04:37:20.820Z,6.15
2022-11-13T04:39:47.587Z,5.57
2022-11-13T04:42:32.939Z,5.78
2022-11-13T04:44:59.804Z,7.05
2022-11-13T04:47:26.858Z,5.47
2022-11-13T04:49:53.679Z,6.47
2022-11-13T04:52:20.487Z,4.90
2022-11-13T04:54:47.256Z,5.63
2022-11-13T04:57:14.143Z,6.13
2022-11-13T04:59:40.921Z,5.50
2022-11-13T05:02:07.705Z,5.63
2022-11-13T05:04:34.767Z,5.95
2022-11-13T05:07:01.638Z,5.50
2022-11-13T05:09:28.480Z,5.82
2022-11-13T05:11:55.241Z,6.50
2022-11-13T05:14:22.038Z,6.22
2022-11-13T05:16:50.243Z,5.60
2022-11-13T05:19:17.461Z,6.13
2022-11-13T05:21:44.293Z,6.25
2022-11-13T05:24:12.125Z,5.63
2022-11-13T05:26:39.746Z,5.40
2022-11-13T05:29:07.108Z,4.97
2022-11-13T05:31:34.033Z,5.65
2022-11-13T05:34:05.974Z,5.72
2022-11-13T05:36:33.568Z,5.13
2022-11-13T05:39:00.542Z,5.45
2022-11-13T05:41:27.576Z,5.72
2022-11-13T05:43:59.216Z,5.88
2022-11-13T05:46:28.647Z,6.05
2022-11-13T05:48:57.872Z,5.75
2022-11-13T05:51:28.197Z,5.50
2022-11-13T05:53:55.332Z,6.35
2022-11-13T05:56:33.768Z,5.47
2022-11-13T05:59:01.677Z,5.00
2022-11-13T06:01:31.837Z,5.55
2022-11-13T06:03:59.990Z,5.15
2022-11-13T06:06:28.221Z,6.38
2022-11-13T06:08:56.526Z,6.13
2022-11-13T06:11:26.085Z,5.72
2022-11-13T06:13:54.427Z,6.55
2022-11-13T06:16:43.036Z,5.78
2022-11-13T06:19:11.039Z,6.25
2022-11-13T06:21:40.117Z,5.72
2022-11-13T06:24:08.850Z,5.82
2022-11-13T06:26:36.503Z,6.00
2022-11-13T06:29:05.706Z,5.93
2022-11-13T06:31:35.974Z,5.43
2022-11-13T06:34:04.322Z,5.85
2022-11-13T06:36:33.505Z,5.80
2022-11-13T06:39:00.610Z,5.57
2022-11-13T06:41:29.639Z,6.22
2022-11-13T06:44:02.317Z,5.93
2022-11-13T06:46:30.960Z,6.63
2022-11-13T06:48:58.196Z,5.20
2022-11-13T06:51:28.832Z,5.00
2022-11-13T06:53:56.899Z,5.25
2022-11-13T06:56:23.917Z,5.32
2022-11-13T06:58:50.735Z,4.55
2022-11-13T07:01:20.211Z,5.53
2022-11-13T07:03:47.723Z,5.30
2022-11-13T07:06:24.513Z,5.25
2022-11-13T07:08:52.091Z,4.45
2022-11-13T07:11:21.489Z,5.45
2022-11-13T07:13:48.942Z,6.45
2022-11-13T07:16:17.986Z,4.82
2022-11-13T07:18:54.943Z,6.03
2022-11-13T07:21:22.315Z,5.40
2022-11-13T07:23:50.257Z,5.47
2022-11-13T07:26:17.914Z,5.93
2022-11-13T07:28:45.472Z,5.68
2022-11-13T07:31:13.522Z,5.35
2022-11-13T07:33:40.366Z,5.28
2022-11-13T07:36:08.475Z,5.40
2022-11-13T07:38:35.347Z,5.57
2022-11-13T07:41:02.938Z,5.68
2022-11-13T07:43:30.041Z,4.82
2022-11-13T07:45:59.366Z,6.28
2022-11-13T07:48:27.969Z,5.22
2022-11-13T07:50:55.553Z,5.40
2022-11-13T07:53:22.402Z,5.03
2022-11-13T07:55:49.253Z,4.55
2022-11-13T07:58:16.243Z,5.45
2022-11-13T08:00:43.086Z,5.57
2022-11-13T08:03:16.059Z,5.13
2022-11-13T08:05:43.415Z,5.68
2022-11-13T08:08:14.876Z,6.15
2022-11-13T08:10:42.323Z,5.35
2022-11-13T08:13:11.123Z,6.60
2022-11-13T08:15:38.591Z,5.55
2022-11-13T08:18:06.477Z,6.20
2022-11-13T08:20:34.138Z,4.85
2022-11-13T08:23:02.660Z,5.40
2022-11-13T08:25:31.133Z,5.25
2022-11-13T08:27:58.328Z,4.80
2022-11-13T08:30:26.698Z,5.55
2022-11-13T08:32:53.721Z,5.38
2022-11-13T08:35:25.233Z,5.05
2022-11-13T08:38:00.983Z,5.90
2022-11-13T08:40:28.074Z,4.57
2022-11-13T08:43:00.002Z,6.15
2022-11-13T08:45:27.944Z,5.45
2022-11-13T08:47:55.078Z,5.72
2022-11-13T08:50:21.807Z,5.85
2022-11-13T08:52:53.415Z,5.10
2022-11-13T08:55:20.216Z,5.68
2022-11-13T08:57:47.289Z,5.63
2022-11-13T09:00:14.668Z,5.65
2022-11-13T09:02:41.921Z,5.38
2022-11-13T09:05:09.000Z,5.38
2022-11-13T09:07:36.050Z,5.85
2022-11-13T09:10:02.962Z,7.20
2022-11-13T09:12:29.902Z,5.97
2022-11-13T09:14:56.962Z,5.53
2022-11-13T09:17:23.742Z,5.20
2022-11-13T09:19:50.508Z,5.28
2022-11-13T09:22:17.280Z,5.38
2022-11-13T09:24:44.065Z,5.80
2022-11-13T09:27:10.931Z,5.22
2022-11-13T09:29:37.756Z,5.97
2022-11-13T09:32:04.893Z,4.80
2022-11-13T09:34:33.641Z,5.45
2022-11-13T09:37:00.959Z,5.28
2022-11-13T09:39:28.526Z,5.47
2022-11-13T09:42:17.527Z,6.07
2022-11-13T09:44:52.243Z,6.43
2022-11-13T09:47:24.991Z,5.43
2022-11-13T09:50:03.515Z,5.68
2022-11-13T09:52:37.460Z,6.57
2022-11-13T09:55:05.126Z,5.93
2022-11-13T09:57:39.691Z,6.05
2022-11-13T10:00:27.881Z,5.63
2022-11-13T10:04:00.645Z,5.55
2022-11-13T10:06:52.540Z,5.00
2022-11-13T10:09:40.800Z,5.40
2022-11-13T10:12:08.868Z,5.07
2022-11-13T10:14:42.870Z,5.90
2022-11-13T10:17:34.618Z,5.13
2022-11-13T10:20:05.539Z,4.80
2022-11-13T10:22:41.361Z,5.65
2022-11-13T10:25:11.736Z,5.05
2022-11-13T10:27:39.560Z,4.82
2022-11-13T10:30:17.626Z,5.22
2022-11-13T10:32:45.425Z,4.63
2022-11-13T10:35:30.365Z,4.65
2022-11-13T10:38:15.917Z,4.32
2022-11-13T10:40:42.753Z,4.38
2022-11-13T10:43:25.202Z,4.60
2022-11-13T10:46:06.270Z,3.78
2022-11-13T10:48:37.120Z,3.70
2022-11-13T10:51:07.865Z,3.47
2022-11-13T10:53:42.638Z,4.32
2022-11-13T10:56:22.633Z,3.70
2022-11-13T10:59:10.529Z,3.53
2022-11-13T11:01:37.932Z,3.90
2022-11-13T11:04:06.607Z,4.38
2022-11-13T11:07:13.205Z,3.58
2022-11-13T11:09:30.134Z,3.45
2022-11-13T11:12:25.668Z,2.88
2022-11-13T11:15:02.010Z,3.33
2022-11-13T11:17:35.795Z,3.03
2022-11-13T11:20:14.075Z,3.30
2022-11-13T11:22:41.942Z,3.45
2022-11-13T11:25:20.136Z,3.70
2022-11-13T11:27:52.661Z,2.97
2022-11-13T11:30:22.960Z,3.72
2022-11-13T11:32:52.505Z,4.28
2022-11-13T11:35:28.776Z,3.95
2022-11-13T11:38:04.786Z,3.15
2022-11-13T11:40:38.951Z,2.65
2022-11-13T11:43:29.129Z,3.08
2022-11-13T11:45:56.067Z,2.75
2022-11-13T11:48:33.334Z,3.03
2022-11-13T11:51:50.909Z,2.80
2022-11-13T11:54:24.550Z,3.20
2022-11-13T11:56:55.872Z,2.60
2022-11-13T11:59:46.647Z,2.33
2022-11-13T12:02:50.032Z,3.15
2022-11-13T12:05:24.591Z,3.03
2022-11-13T12:08:16.625Z,3.05
2022-11-13T12:10:50.029Z,3.17
2022-11-13T12:13:33.039Z,3.45
2022-11-13T12:16:24.647Z,3.13
2022-11-13T12:19:23.274Z,3.15
2022-11-13T12:22:04.059Z,2.22
2022-11-13T12:25:05.700Z,2.90
2022-11-13T12:27:39.042Z,2.83
2022-11-13T12:30:19.032Z,2.30
2022-11-13T12:33:05.933Z,2.28
2022-11-13T12:35:32.744Z,2.42
2022-11-13T12:38:22.703Z,2.10
2022-11-13T12:41:21.354Z,1.88
2022-11-13T12:44:15.400Z,1.40
2022-11-13T12:46:43.004Z,1.52
2022-11-13T12:49:30.602Z,1.63
2022-11-13T12:52:03.721Z,1.10
2022-11-13T12:54:34.992Z,1.60
2022-11-13T12:57:30.739Z,1.83
2022-11-13T13:00:10.491Z,1.42
2022-11-13T13:03:07.639Z,1.10
2022-11-13T13:06:16.182Z,1.15
2022-11-13T13:09:04.805Z,1.45
2022-11-13T13:12:07.387Z,1.65
2022-11-13T13:14:34.173Z,2.10
2022-11-13T13:17:20.134Z,1.40
2022-11-13T13:20:01.152Z,2.33
2022-11-13T13:22:34.335Z,2.28
2022-11-13T13:25:09.376Z,1.70
2022-11-13T13:27:39.437Z,2.00
2022-11-13T13:30:20.612Z,1.52
2022-11-13T13:33:11.518Z,1.70
2022-11-13T13:35:57.578Z,1.30
2022-11-13T13:38:27.430Z,1.33
2022-11-13T13:41:18.878Z,1.40
2022-11-13T13:44:00.859Z,1.30
2022-11-13T13:46:31.955Z,1.52
2022-11-13T13:49:05.575Z,1.67
2022-11-13T13:51:55.542Z,1.53
2022-11-13T13:54:26.465Z,1.50
2022-11-13T13:56:55.568Z,1.73
2022-11-13T13:59:32.333Z,1.52
2022-11-13T14:02:01.142Z,1.35
2022-11-13T14:04:46.084Z,1.67
2022-11-13T14:10:05.823Z,1.10
2022-11-13T14:12:32.921Z,1.27
2022-11-13T14:14:59.758Z,1.80
2022-11-13T14:17:27.454Z,1.67
2022-11-13T14:19:56.083Z,1.20
2022-11-13T14:22:23.560Z,1.70
2022-11-13T14:25:01.463Z,2.08
2022-11-13T14:27:30.980Z,1.77
2022-11-13T14:30:00.967Z,1.75
2022-11-13T14:32:33.737Z,2.28
2022-11-13T14:35:03.617Z,2.60
2022-11-13T14:37:36.636Z,2.50
2022-11-13T14:40:14.225Z,1.90
2022-11-13T14:42:48.053Z,2.92
2022-11-13T14:45:28.165Z,2.40
2022-11-13T14:48:16.797Z,2.63
2022-11-13T14:50:56.082Z,1.83
2022-11-13T14:53:41.759Z,1.67
2022-11-13T14:56:11.498Z,1.73
2022-11-13T14:58:43.789Z,1.45
2022-11-13T15:01:17.968Z,2.47
2022-11-13T15:03:46.275Z,1.85
2022-11-13T15:06:19.399Z,2.17
2022-11-13T15:08:47.723Z,2.00
2022-11-13T15:11:19.678Z,2.30
2022-11-13T15:13:46.959Z,1.80
2022-11-13T15:16:26.593Z,2.47
2022-11-13T15:19:00.423Z,2.42
2022-11-13T15:21:28.194Z,2.42
2022-11-13T15:23:55.046Z,2.45
2022-11-13T15:26:21.867Z,2.15
2022-11-13T15:28:48.670Z,2.38
2022-11-13T15:31:20.283Z,2.63
2022-11-13T15:33:47.854Z,2.22
2022-11-13T15:36:14.953Z,1.80
2022-11-13T15:38:41.819Z,1.77
2022-11-13T15:41:29.536Z,3.50
2022-11-13T15:43:56.841Z,2.63
2022-11-13T15:46:24.894Z,3.58
2022-11-13T15:48:51.819Z,3.85
2022-11-13T15:51:23.034Z,3.83
2022-11-13T15:53:56.180Z,3.30
2022-11-13T15:56:24.660Z,3.10
2022-11-13T15:58:51.730Z,3.45
2022-11-13T16:01:19.412Z,3.67
2022-11-13T16:03:46.481Z,3.22
2022-11-13T16:06:19.958Z,3.63
2022-11-13T16:08:47.427Z,3.55
2022-11-13T16:11:19.295Z,3.65
2022-11-13T16:13:46.666Z,3.40
2022-11-13T16:16:20.356Z,3.67
2022-11-13T16:18:47.436Z,3.40
2022-11-13T16:21:14.313Z,3.17
2022-11-13T16:23:41.426Z,3.38
2022-11-13T16:26:22.721Z,3.72
2022-11-13T16:29:12.852Z,3.65
2022-11-13T16:31:39.484Z,4.10
2022-11-13T16:34:06.387Z,3.75
2022-11-13T16:36:33.298Z,3.75
2022-11-13T16:39:00.152Z,4.60
2022-11-13T16:41:26.917Z,4.75
2022-11-13T16:43:53.711Z,4.70
2022-11-13T16:46:28.111Z,3.88
2022-11-13T16:48:55.321Z,4.60
2022-11-13T16:51:22.413Z,3.95
2022-11-13T16:53:49.620Z,4.95
2022-11-13T16:56:24.651Z,4.63
2022-11-13T16:58:52.013Z,4.75
2022-11-13T17:01:22.314Z,4.82
2022-11-13T17:03:49.414Z,4.30
2022-11-13T17:06:29.269Z,4.47
2022-11-13T17:08:57.948Z,4.88
2022-11-13T17:11:26.461Z,5.07
2022-11-13T17:13:58.833Z,5.80
2022-11-13T17:16:27.537Z,5.68
2022-11-13T17:18:54.964Z,4.03
2022-11-13T17:21:25.071Z,5.03
2022-11-13T17:23:59.590Z,5.18
2022-11-13T17:26:27.053Z,5.70
2022-11-13T17:28:53.870Z,4.47
2022-11-13T17:31:21.600Z,5.78
2022-11-13T17:33:48.574Z,5.20
2022-11-13T17:36:15.563Z,6.97
2022-11-13T17:38:42.662Z,6.07
2022-11-13T17:41:12.495Z,4.82
2022-11-13T17:43:40.983Z,5.78
2022-11-13T17:46:11.904Z,6.60
2022-11-13T17:48:39.320Z,5.45
2022-11-13T17:51:07.905Z,4.93
2022-11-13T17:53:35.052Z,5.00
2022-11-13T17:56:04.844Z,4.85
2022-11-13T17:58:45.797Z,5.03
2022-11-13T18:01:21.623Z,5.13
2022-11-13T18:03:53.827Z,6.07
2022-11-13T18:06:21.111Z,6.40
2022-11-13T18:08:48.034Z,6.65
2022-11-13T18:11:23.981Z,6.85
2022-11-13T18:13:51.430Z,6.00
2022-11-13T18:16:29.764Z,6.40
2022-11-13T18:18:58.334Z,6.20
2022-11-13T18:21:28.163Z,6.35
2022-11-13T18:24:00.370Z,6.40
2022-11-13T18:26:29.042Z,7.38
2022-11-13T18:28:56.377Z,5.82
2022-11-13T18:31:23.589Z,6.25
2022-11-13T18:33:51.197Z,6.03
2022-11-13T18:36:18.018Z,6.45
2022-11-13T18:38:45.231Z,6.70
2022-11-13T18:41:22.627Z,6.22
2022-11-13T18:43:52.144Z,6.50
2022-11-13T18:46:21.455Z,7.30
2022-11-13T18:48:49.195Z,7.43
2022-11-13T18:51:25.128Z,7.00
2022-11-13T18:53:52.975Z,7.97
2022-11-13T18:56:25.629Z,7.35
2022-11-13T18:58:54.168Z,6.72
2022-11-13T19:01:24.918Z,7.18
2022-11-13T19:04:22.337Z,7.90
2022-11-13T19:06:40.853Z,8.00
2022-11-13T19:09:13.940Z,8.40
2022-11-13T19:11:40.852Z,8.75
2022-11-13T19:14:08.734Z,8.60
2022-11-13T19:16:38.787Z,8.77
2022-11-13T19:19:10.972Z,7.90
2022-11-13T19:21:37.791Z,10.05
2022-11-13T19:24:06.086Z,11.05
2022-11-13T19:26:34.321Z,10.57
2022-11-13T19:29:01.098Z,11.07
2022-11-13T19:31:28.361Z,11.02
2022-11-13T19:33:57.241Z,11.20
2022-11-13T19:36:25.711Z,10.20
2022-11-13T19:38:52.957Z,12.23
2022-11-13T19:41:20.219Z,11.05
2022-11-13T19:43:49.063Z,12.38
2022-11-13T19:46:17.580Z,11.60
2022-11-13T19:48:46.155Z,11.68
2022-11-13T19:51:22.270Z,11.68
2022-11-13T19:53:58.530Z,10.68
2022-11-13T19:56:28.328Z,12.25
2022-11-13T19:58:55.778Z,11.50
2022-11-13T20:01:27.703Z,11.23
2022-11-13T20:03:56.698Z,11.88
2022-11-13T20:06:24.597Z,12.38
2022-11-13T20:08:51.411Z,11.20
2022-11-13T20:11:18.594Z,11.05
2022-11-13T20:13:46.285Z,12.25
2022-11-13T20:16:14.992Z,11.27
2022-11-13T20:18:43.006Z,12.68
2022-11-13T20:21:10.492Z,13.38
2022-11-13T20:23:37.480Z,11.38
2022-11-13T20:26:08.442Z,13.63
2022-11-13T20:28:35.264Z,12.13
2022-11-13T20:31:03.856Z,11.23
2022-11-13T20:33:32.774Z,12.68
2022-11-13T20:35:59.603Z,12.27
2022-11-13T20:38:26.685Z,12.35
2022-11-13T20:40:54.158Z,11.68
2022-11-13T20:43:21.502Z,12.55
2022-11-13T20:45:48.391Z,10.77
2022-11-13T20:48:15.322Z,12.00
2022-11-13T20:50:42.175Z,11.43
2022-11-13T20:53:09.034Z,12.73
2022-11-13T20:55:35.834Z,12.45
2022-11-13T20:58:02.985Z,10.52
2022-11-13T21:00:29.980Z,10.95
2022-11-13T21:02:56.778Z,11.57
2022-11-13T21:05:23.771Z,12.20
2022-11-13T21:07:50.567Z,11.25
2022-11-13T21:10:17.454Z,10.57
2022-11-13T21:12:44.252Z,12.43
2022-11-13T21:15:11.355Z,11.13
2022-11-13T21:17:38.444Z,11.45
2022-11-13T21:20:05.975Z,10.63
2022-11-13T21:22:32.756Z,11.52
2022-11-13T21:24:59.547Z,10.88
2022-11-13T21:27:26.440Z,12.35
2022-11-13T21:29:53.924Z,9.68
2022-11-13T21:32:20.832Z,9.38
2022-11-13T21:34:47.727Z,12.23
2022-11-13T21:37:14.598Z,10.55
2022-11-13T21:39:41.395Z,10.77
2022-11-13T21:42:08.154Z,11.57
2022-11-13T21:44:34.993Z,10.05
2022-11-13T21:47:01.848Z,10.55
2022-11-13T21:49:28.785Z,10.05
2022-11-13T21:51:55.588Z,10.80
2022-11-13T21:54:22.449Z,10.77
2022-11-13T21:56:49.319Z,9.77
2022-11-13T21:59:16.183Z,10.55
2022-11-13T22:01:43.088Z,10.63
2022-11-13T22:04:09.934Z,10.00
2022-11-13T22:06:36.866Z,8.75
2022-11-13T22:09:15.574Z,11.40
2022-11-13T22:11:42.870Z,9.52
2022-11-13T22:14:10.196Z,9.45
2022-11-13T22:16:39.009Z,10.10
2022-11-13T22:19:09.521Z,10.07
2022-11-13T22:21:36.665Z,11.02
2022-11-13T22:24:04.279Z,10.15
2022-11-13T22:26:31.753Z,8.93
2022-11-13T22:29:00.080Z,10.05
2022-11-13T22:31:29.069Z,10.77
2022-11-13T22:33:56.642Z,9.65
2022-11-13T22:36:28.970Z,9.98
2022-11-13T22:38:56.376Z,7.93
2022-11-13T22:41:27.520Z,9.98
2022-11-13T22:43:57.164Z,8.75
2022-11-13T22:46:27.010Z,10.00
2022-11-13T22:48:55.285Z,9.80
2022-11-13T22:51:25.262Z,9.10
2022-11-13T22:53:57.408Z,10.70
2022-11-13T22:56:26.211Z,10.55
2022-11-13T22:58:54.407Z,10.45
2022-11-13T23:01:24.025Z,10.68
2022-11-13T23:03:52.515Z,9.38
2022-11-13T23:06:25.128Z,10.73
2022-11-13T23:08:52.528Z,9.40
2022-11-13T23:11:23.583Z,11.18
2022-11-13T23:13:53.356Z,12.13
2022-11-13T23:16:21.355Z,10.50
2022-11-13T23:18:49.617Z,9.88
2022-11-13T23:21:17.468Z,11.00
2022-11-13T23:23:44.675Z,11.30
2022-11-13T23:26:12.951Z,12.05
2022-11-13T23:28:40.251Z,9.88
2022-11-13T23:31:07.047Z,9.60
2022-11-13T23:33:34.497Z,10.27
2022-11-13T23:36:01.466Z,11.63
2022-11-13T23:38:28.463Z,11.13
2022-11-13T23:40:56.864Z,11.25
2022-11-13T23:43:36.507Z,10.98
2022-11-13T23:46:11.706Z,9.75
2022-11-13T23:48:40.111Z,10.57
2022-11-13T23:51:07.750Z,11.45
2022-11-13T23:53:34.701Z,10.90
2022-11-13T23:56:01.561Z,11.70
2022-11-13T23:58:28.700Z,11.07
